Time;durP1;ratioP1;P1;durP2;ratioP2;P2;SDS_P1;SDS_P2;PMS_P1;PMS_P2;Temp;Humidity;BMP_temperature;BMP_pressure;BME280_temperature;BME280_humidity;BME280_pressure;Samples;Min_cycle;Max_cycle;Signal;HPM_P1;HPM_P2
2022/06/24 00:09:28;;;;;;;0.20;0.00;;;22.20;99.90;;;;;;21231955;28;20207;-70
2022/06/24 00:19:35;;;;;;;0.20;0.00;;;22.20;99.90;;;;;;21234810;28;20896;-71
2022/06/24 00:29:39;;;;;;;0.20;0.00;;;22.30;99.90;;;;;;21232821;28;20218;-71
2022/06/24 00:39:44;;;;;;;0.20;0.00;;;22.00;99.90;;;;;;21232265;28;20251;-71
2022/06/24 00:49:53;;;;;;;0.20;0.00;;;21.90;99.90;;;;;;21230167;28;20255;-71
2022/06/24 00:59:58;;;;;;;0.20;0.00;;;22.00;99.90;;;;;;21229527;27;20242;-71
2022/06/24 01:10:02;;;;;;;0.20;0.00;;;22.00;99.90;;;;;;21231472;28;20192;-70
2022/06/24 01:20:10;;;;;;;0.20;0.00;;;21.90;99.90;;;;;;21228372;28;20273;-72
2022/06/24 01:30:15;;;;;;;0.20;0.00;;;21.90;99.90;;;;;;21229180;28;20211;-70
2022/06/24 01:40:19;;;;;;;0.20;0.00;;;21.80;99.90;;;;;;21226826;27;20274;-71
2022/06/24 01:50:24;;;;;;;0.20;0.00;;;21.60;99.90;;;;;;21225180;28;20199;-70
2022/06/24 02:00:28;;;;;;;0.20;0.00;;;21.60;99.90;;;;;;21224861;28;20223;-72
2022/06/24 02:20:56;;;;;;;0.20;0.00;;;21.70;99.90;;;;;;21223957;28;20235;-71
2022/06/24 02:31:03;;;;;;;0.20;0.00;;;21.70;99.90;;;;;;21224811;28;20273;-71
2022/06/24 02:41:06;;;;;;;0.20;0.00;;;21.80;99.90;;;;;;21223438;28;20254;-71
2022/06/24 02:51:13;;;;;;;0.20;0.00;;;21.50;99.90;;;;;;21223577;28;20207;-70
2022/06/24 03:01:17;;;;;;;0.20;0.00;;;21.60;99.90;;;;;;21221326;28;20223;-70
2022/06/24 03:11:22;;;;;;;0.20;0.00;;;21.40;99.90;;;;;;21222757;28;20213;-72
2022/06/24 03:21:26;;;;;;;0.20;0.00;;;21.20;99.90;;;;;;21222567;28;20262;-70
2022/06/24 03:31:31;;;;;;;0.20;0.00;;;21.10;99.90;;;;;;21237770;28;20203;-71
2022/06/24 03:41:35;;;;;;;0.20;0.10;;;20.90;99.90;;;;;;21238082;28;20229;-72
2022/06/24 03:51:40;;;;;;;0.20;0.00;;;21.10;99.90;;;;;;21236932;28;20215;-72
2022/06/24 04:01:44;;;;;;;0.20;0.00;;;20.90;99.90;;;;;;21236573;28;20250;-70
2022/06/24 04:11:49;;;;;;;0.20;0.00;;;21.10;99.90;;;;;;21234391;28;20214;-70
2022/06/24 04:21:53;;;;;;;0.20;0.10;;;21.20;99.90;;;;;;21233206;28;20248;-71
2022/06/24 04:31:58;;;;;;;0.20;0.10;;;21.20;99.90;;;;;;21233939;28;20219;-72
2022/06/24 04:42:02;;;;;;;0.20;0.00;;;21.20;99.90;;;;;;21234505;28;20226;-71
2022/06/24 04:52:08;;;;;;;0.20;0.00;;;20.90;99.90;;;;;;21232655;28;20309;-71
2022/06/24 05:02:12;;;;;;;0.20;0.00;;;21.00;99.90;;;;;;21232838;28;20223;-71
2022/06/24 05:12:17;;;;;;;0.20;0.10;;;21.10;99.90;;;;;;21230765;28;20187;-72
2022/06/24 05:22:21;;;;;;;0.20;0.00;;;21.20;99.90;;;;;;21231265;28;20249;-70
2022/06/24 05:32:26;;;;;;;0.20;0.00;;;21.50;99.90;;;;;;21229221;28;20222;-70
2022/06/24 05:42:31;;;;;;;0.20;0.00;;;21.90;99.90;;;;;;21228813;28;20243;-71
2022/06/24 06:02:58;;;;;;;0.20;0.00;;;22.50;99.90;;;;;;21226115;28;20287;-69
2022/06/24 06:13:03;;;;;;;0.20;0.00;;;22.90;99.90;;;;;;21223703;28;20191;-70
2022/06/24 06:23:07;;;;;;;0.20;0.00;;;23.30;99.90;;;;;;21225705;28;20708;-71
2022/06/24 06:33:12;;;;;;;0.20;0.00;;;23.80;99.90;;;;;;21224421;28;20210;-71
2022/06/24 06:43:16;;;;;;;0.20;0.00;;;23.80;99.90;;;;;;21222059;28;20250;-71
2022/06/24 06:53:21;;;;;;;0.20;0.00;;;23.90;99.90;;;;;;21223404;28;20260;-72
2022/06/24 07:03:25;;;;;;;0.20;0.00;;;23.80;99.90;;;;;;21234432;28;20219;-71
2022/06/24 07:13:30;;;;;;;0.20;0.00;;;24.20;99.90;;;;;;21236837;28;20210;-71
2022/06/24 07:23:35;;;;;;;0.20;0.00;;;24.10;99.90;;;;;;21234559;28;20263;-70
2022/06/24 07:33:40;;;;;;;0.20;0.00;;;24.00;99.90;;;;;;21233611;28;20191;-72
2022/06/24 07:43:44;;;;;;;0.20;0.08;;;24.30;99.90;;;;;;21233220;28;20235;-73
2022/06/24 07:53:50;;;;;;;0.20;0.00;;;24.60;99.90;;;;;;21232951;28;20207;-72
2022/06/24 08:03:54;;;;;;;0.20;0.00;;;24.80;99.90;;;;;;21231080;28;20219;-72
2022/06/24 08:13:59;;;;;;;0.20;0.00;;;25.10;99.90;;;;;;21229319;28;20217;-71
2022/06/24 08:24:03;;;;;;;0.20;0.10;;;25.10;99.90;;;;;;21165525;28;1866269;-73
2022/06/24 08:34:08;;;;;;;0.20;0.10;;;25.20;99.90;;;;;;21233820;28;20225;-72
2022/06/24 08:44:13;;;;;;;0.20;0.00;;;25.40;99.90;;;;;;21232158;28;20269;-71
2022/06/24 08:54:20;;;;;;;0.20;0.00;;;26.20;99.90;;;;;;21233276;28;20195;-70
2022/06/24 09:04:29;;;;;;;0.20;0.10;;;26.80;99.90;;;;;;21228790;28;20242;-72
2022/06/24 09:14:49;;;;;;;0.20;0.00;;;27.70;99.90;;;;;;21230039;28;20224;-72
2022/06/24 09:24:53;;;;;;;0.20;0.00;;;27.70;99.90;;;;;;21223894;28;20259;-72
2022/06/24 09:35:05;;;;;;;0.20;0.00;;;26.90;99.90;;;;;;21227448;28;20259;-72
2022/06/24 09:45:10;;;;;;;0.20;0.00;;;26.90;99.90;;;;;;21225601;28;20226;-71
2022/06/24 09:55:24;;;;;;;0.20;0.00;;;26.80;99.90;;;;;;21224778;28;20191;-71
2022/06/24 10:05:35;;;;;;;0.20;0.10;;;27.50;99.90;;;;;;21225964;28;20280;-72
2022/06/24 10:15:40;;;;;;;0.20;0.00;;;27.80;99.90;;;;;;21223688;28;20249;-70
2022/06/24 10:25:54;;;;;;;0.20;0.00;;;28.10;99.90;;;;;;21224567;28;20239;-72
2022/06/24 10:36:04;;;;;;;0.20;0.00;;;27.70;99.90;;;;;;21224198;28;20192;-72
2022/06/24 10:46:18;;;;;;;0.20;0.00;;;28.40;99.90;;;;;;21222516;28;20201;-69
2022/06/24 10:56:39;;;;;;;0.20;0.00;;;28.60;99.90;;;;;;21219404;28;20213;-71
2022/06/24 11:07:10;;;;;;;0.20;0.00;;;28.50;99.90;;;;;;21220857;28;20195;-72
2022/06/24 11:17:16;;;;;;;0.20;0.00;;;28.40;99.90;;;;;;21221554;28;20242;-70
2022/06/24 11:27:20;;;;;;;0.20;0.00;;;29.20;99.90;;;;;;21220265;28;20187;-71
2022/06/24 11:37:25;;;;;;;0.20;0.00;;;30.00;99.90;;;;;;21222523;28;20227;-72
2022/06/24 11:47:34;;;;;;;0.20;0.00;;;32.00;99.90;;;;;;21224858;28;20187;-70
2022/06/24 11:57:39;;;;;;;0.20;0.00;;;32.30;99.90;;;;;;21235093;28;20235;-71
2022/06/24 12:07:44;;;;;;;0.20;0.00;;;32.20;99.90;;;;;;21236398;28;20202;-71
2022/06/24 12:17:53;;;;;;;0.20;0.00;;;32.90;99.90;;;;;;21231246;28;20258;-72
2022/06/24 12:27:57;;;;;;;0.20;0.00;;;32.70;99.90;;;;;;21231997;28;20214;-71
2022/06/24 12:38:04;;;;;;;0.20;0.00;;;33.90;99.90;;;;;;21234150;27;20282;-72
2022/06/24 12:58:31;;;;;;;0.20;0.00;;;33.10;99.90;;;;;;21228848;28;20219;-72
2022/06/24 13:08:35;;;;;;;0.20;0.00;;;34.20;99.90;;;;;;21228796;28;20211;-71
2022/06/24 13:18:40;;;;;;;0.20;0.00;;;33.10;99.90;;;;;;21226997;28;20257;-71
2022/06/24 13:28:44;;;;;;;0.20;0.00;;;33.60;99.90;;;;;;21211503;28;20258;-72
2022/06/24 13:38:50;;;;;;;0.20;0.00;;;33.40;99.90;;;;;;21226544;28;20231;-72
2022/06/24 13:48:57;;;;;;;0.20;0.00;;;32.70;99.90;;;;;;21229311;28;20210;-73
2022/06/24 13:59:03;;;;;;;0.20;0.00;;;33.90;99.90;;;;;;21226420;28;20223;-72
2022/06/24 14:09:07;;;;;;;0.20;0.00;;;33.20;99.90;;;;;;21227169;28;20218;-72
2022/06/24 14:19:12;;;;;;;0.20;0.00;;;31.70;99.90;;;;;;21226309;28;20258;-71
2022/06/24 14:29:16;;;;;;;0.20;0.00;;;31.90;99.90;;;;;;21223289;28;20263;-71
2022/06/24 14:49:42;;;;;;;0.20;0.00;;;32.50;99.90;;;;;;21222331;28;20195;-72
2022/06/24 14:59:47;;;;;;;0.43;0.43;;;31.80;99.90;;;;;;21222807;28;20222;-73
2022/06/24 15:09:51;;;;;;;0.20;0.00;;;33.10;99.90;;;;;;21222820;28;20214;-72
2022/06/24 15:19:57;;;;;;;0.20;0.00;;;31.90;99.90;;;;;;21224045;28;20243;-71
2022/06/24 15:30:01;;;;;;;0.20;0.00;;;32.00;99.90;;;;;;21239367;28;20211;-72
2022/06/24 15:40:07;;;;;;;0.20;0.00;;;31.00;99.90;;;;;;21237080;28;20248;-71
2022/06/24 15:50:11;;;;;;;0.20;0.00;;;30.30;99.90;;;;;;21236589;28;20285;-72
2022/06/24 16:00:17;;;;;;;0.20;0.10;;;30.50;99.90;;;;;;21235361;28;20215;-72
2022/06/24 16:10:21;;;;;;;0.20;0.10;;;29.90;99.90;;;;;;21235263;28;20263;-72
2022/06/24 16:20:26;;;;;;;0.20;0.00;;;30.20;99.90;;;;;;21232878;28;20311;-72
2022/06/24 16:30:30;;;;;;;0.20;0.00;;;30.60;99.90;;;;;;21233459;28;20191;-72
2022/06/24 16:40:36;;;;;;;0.20;0.00;;;30.30;99.90;;;;;;21232914;28;20288;-72
2022/06/24 16:50:40;;;;;;;0.20;0.00;;;30.90;99.90;;;;;;21229097;28;20219;-71
2022/06/24 17:00:46;;;;;;;0.20;0.00;;;29.90;99.90;;;;;;21230519;28;20242;-71
2022/06/24 17:10:50;;;;;;;0.20;0.05;;;30.60;99.90;;;;;;21228363;28;20216;-72
2022/06/24 17:20:56;;;;;;;0.20;0.00;;;29.30;99.90;;;;;;21228075;28;20254;-71
2022/06/24 17:31:00;;;;;;;0.20;0.00;;;29.10;99.90;;;;;;21226528;28;20191;-71
2022/06/24 17:41:05;;;;;;;0.20;0.00;;;28.70;99.90;;;;;;21209112;28;20254;-72
2022/06/24 17:51:09;;;;;;;0.20;0.00;;;28.10;99.90;;;;;;21224260;28;20963;-71
2022/06/24 18:01:14;;;;;;;0.20;0.00;;;29.00;99.90;;;;;;21225127;28;20291;-73
2022/06/24 18:11:18;;;;;;;0.20;0.00;;;28.90;99.90;;;;;;21225045;28;20195;-71
2022/06/24 18:21:23;;;;;;;0.20;0.00;;;29.10;99.90;;;;;;21223878;28;20338;-71
2022/06/24 18:31:27;;;;;;;0.20;0.05;;;28.20;99.90;;;;;;21220869;28;20199;-72
2022/06/24 18:41:33;;;;;;;0.20;0.00;;;27.80;99.90;;;;;;21222389;28;20226;-72
2022/06/24 18:51:37;;;;;;;0.20;0.00;;;27.70;99.90;;;;;;21218123;28;20188;-73
2022/06/24 19:01:42;;;;;;;0.20;0.00;;;27.00;99.90;;;;;;21235826;28;20242;-71
2022/06/24 19:11:46;;;;;;;0.20;0.10;;;25.20;99.90;;;;;;21236135;28;20191;-73
2022/06/24 19:21:52;;;;;;;0.20;0.00;;;24.50;99.90;;;;;;21236145;28;20231;-72
2022/06/24 19:31:57;;;;;;;0.20;0.00;;;24.20;99.90;;;;;;21236118;28;20321;-72
2022/06/24 19:42:02;;;;;;;0.20;0.00;;;24.00;99.90;;;;;;21232914;28;20238;-71
2022/06/24 19:52:06;;;;;;;0.20;0.00;;;24.00;99.90;;;;;;21234152;28;21000;-73
2022/06/24 20:12:33;;;;;;;0.20;0.00;;;23.90;99.90;;;;;;21231076;28;20194;-73
2022/06/24 20:22:38;;;;;;;0.20;0.00;;;23.80;99.90;;;;;;21235319;28;20267;-72
2022/06/24 20:32:42;;;;;;;0.20;0.00;;;23.60;99.90;;;;;;21234474;28;20221;-71
2022/06/24 20:42:48;;;;;;;0.20;0.00;;;23.50;99.90;;;;;;21230790;28;20235;-72
2022/06/24 20:52:51;;;;;;;0.20;0.00;;;23.50;99.90;;;;;;21233000;28;20211;-73
2022/06/24 21:02:57;;;;;;;0.20;0.00;;;23.40;99.90;;;;;;21230745;28;20246;-72
2022/06/24 21:13:00;;;;;;;0.20;0.00;;;23.40;99.90;;;;;;21230502;28;20210;-71
2022/06/24 21:23:06;;;;;;;0.20;0.00;;;23.30;99.90;;;;;;21229321;28;20227;-71
2022/06/24 21:33:10;;;;;;;0.20;0.00;;;23.40;99.90;;;;;;21230303;28;20271;-72
2022/06/24 21:43:15;;;;;;;0.20;0.00;;;23.30;99.90;;;;;;21227529;28;20561;-71
2022/06/24 21:53:19;;;;;;;0.20;0.00;;;23.40;99.90;;;;;;21228689;28;20199;-72
2022/06/24 22:03:24;;;;;;;0.20;0.00;;;23.20;99.90;;;;;;21225018;28;20287;-73
2022/06/24 22:13:28;;;;;;;0.20;0.00;;;23.10;99.90;;;;;;21226170;28;20188;-71
2022/06/24 22:23:53;;;;;;;0.20;0.00;;;23.10;99.90;;;;;;21225038;28;20233;-72
2022/06/24 22:33:57;;;;;;;0.20;0.00;;;23.10;99.90;;;;;;21226426;28;20259;-71
2022/06/24 22:44:02;;;;;;;0.20;0.00;;;23.00;99.90;;;;;;21223187;28;20207;-70
2022/06/24 22:54:06;;;;;;;0.20;0.10;;;22.60;99.90;;;;;;21224938;28;20200;-71
2022/06/24 23:04:11;;;;;;;0.20;0.00;;;22.20;99.90;;;;;;21224637;28;20230;-71
2022/06/24 23:14:15;;;;;;;0.20;0.00;;;22.20;99.90;;;;;;21222458;28;20207;-71
2022/06/24 23:24:20;;;;;;;0.20;0.00;;;22.00;99.90;;;;;;21223216;28;20250;-71
2022/06/24 23:34:24;;;;;;;0.20;0.00;;;21.90;99.90;;;;;;21224465;28;20222;-71
2022/06/24 23:44:29;;;;;;;0.20;0.00;;;21.80;99.90;;;;;;21230207;28;20243;-71
2022/06/24 23:54:33;;;;;;;0.20;0.00;;;21.60;99.90;;;;;;21239409;28;20209;-71
